Time;durP1;ratioP1;P1;durP2;ratioP2;P2;SDS_P1;SDS_P2;PMS_P1;PMS_P2;Temp;Humidity;BMP_temperature;BMP_pressure;BME280_temperature;BME280_humidity;BME280_pressure;Samples;Min_cycle;Max_cycle;Signal;HPM_P1;HPM_P2
2021/12/09 00:00:09;;;;;;;14.90;6.43;;;2.20;99.90;;;;;;5094850;28;20173;-73
2021/12/09 00:02:35;;;;;;;12.63;6.82;;;2.20;99.90;;;;;;5094848;28;20099;-73
2021/12/09 00:05:01;;;;;;;13.48;6.50;;;2.20;99.90;;;;;;5093480;28;20481;-73
2021/12/09 00:07:27;;;;;;;13.73;7.22;;;2.20;99.90;;;;;;5093456;28;20024;-73
2021/12/09 00:09:53;;;;;;;13.15;6.40;;;2.20;99.90;;;;;;5093475;28;20471;-73
2021/12/09 00:12:22;;;;;;;17.50;7.57;;;2.20;99.90;;;;;;5093294;28;20032;-73
2021/12/09 00:14:47;;;;;;;13.23;7.03;;;2.20;99.90;;;;;;5093373;28;20361;-73
2021/12/09 00:17:14;;;;;;;13.45;6.40;;;2.10;99.90;;;;;;5094584;28;20031;-73
2021/12/09 00:19:40;;;;;;;16.25;6.78;;;2.10;99.90;;;;;;5094485;28;20119;-73
2021/12/09 00:22:08;;;;;;;17.05;7.60;;;2.10;99.90;;;;;;5094786;28;20103;-73
2021/12/09 00:24:34;;;;;;;15.90;7.65;;;2.10;99.90;;;;;;5094418;28;20028;-73
2021/12/09 00:26:59;;;;;;;17.83;9.00;;;2.10;99.90;;;;;;5093114;28;20073;-73
2021/12/09 00:29:25;;;;;;;12.27;6.45;;;2.10;99.90;;;;;;5093118;28;20031;-73
2021/12/09 00:31:52;;;;;;;18.42;7.35;;;2.00;99.90;;;;;;5093879;28;20071;-73
2021/12/09 00:34:30;;;;;;;16.27;8.20;;;2.00;99.90;;;;;;5092987;28;20500;-73
2021/12/09 00:37:00;;;;;;;16.95;8.43;;;2.00;99.90;;;;;;5094554;28;20023;-73
2021/12/09 00:39:26;;;;;;;17.10;8.52;;;1.90;99.90;;;;;;5093083;28;20391;-73
2021/12/09 00:41:52;;;;;;;21.42;8.73;;;1.90;99.90;;;;;;5093706;28;20039;-73
2021/12/09 00:44:18;;;;;;;17.77;8.70;;;1.90;99.90;;;;;;5092434;28;20028;-73
2021/12/09 00:46:44;;;;;;;17.92;8.98;;;1.90;99.90;;;;;;5092771;28;20113;-73
2021/12/09 00:49:09;;;;;;;14.02;6.95;;;1.90;99.90;;;;;;5093849;28;20036;-73
2021/12/09 00:51:35;;;;;;;15.73;8.35;;;1.90;99.90;;;;;;5092870;28;20113;-73
2021/12/09 00:54:02;;;;;;;17.25;8.20;;;1.90;99.90;;;;;;5093999;28;20132;-73
2021/12/09 00:56:27;;;;;;;18.75;7.88;;;1.90;99.90;;;;;;5092675;28;20028;-73
2021/12/09 00:58:55;;;;;;;18.75;8.23;;;1.80;99.90;;;;;;5093570;28;20157;-73
2021/12/09 01:01:21;;;;;;;16.43;8.00;;;1.90;99.90;;;;;;5092695;28;20028;-73
2021/12/09 01:03:47;;;;;;;19.08;7.95;;;1.90;99.90;;;;;;5093864;28;20250;-73
2021/12/09 01:06:13;;;;;;;16.63;8.70;;;1.90;99.90;;;;;;5092565;28;20404;-73
2021/12/09 01:08:40;;;;;;;17.20;9.07;;;1.90;99.90;;;;;;5093866;28;20039;-73
2021/12/09 01:11:06;;;;;;;19.02;8.77;;;1.90;99.90;;;;;;5093794;28;20021;-73
2021/12/09 01:13:33;;;;;;;18.77;8.05;;;1.90;99.90;;;;;;5092504;28;20045;-73
2021/12/09 01:15:59;;;;;;;21.90;9.73;;;1.90;99.90;;;;;;5093852;28;20022;-74
2021/12/09 01:18:25;;;;;;;19.10;9.02;;;1.90;99.90;;;;;;5092306;28;20040;-73
2021/12/09 01:20:51;;;;;;;17.05;7.82;;;1.80;99.90;;;;;;5093735;28;20053;-73
2021/12/09 01:23:36;;;;;;;20.25;9.07;;;1.90;99.90;;;;;;5093678;28;20507;-73
2021/12/09 01:26:04;;;;;;;18.02;9.27;;;1.90;99.90;;;;;;5092745;28;20422;-73
2021/12/09 01:28:36;;;;;;;18.52;9.27;;;1.90;99.90;;;;;;5092354;28;20032;-73
2021/12/09 01:31:04;;;;;;;20.25;9.68;;;1.90;99.90;;;;;;5092315;28;20510;-73
2021/12/09 01:33:31;;;;;;;17.08;8.35;;;1.80;99.90;;;;;;5093648;28;20023;-73
2021/12/09 01:35:57;;;;;;;25.15;9.98;;;1.80;99.90;;;;;;5092316;28;20024;-73
2021/12/09 01:38:27;;;;;;;19.60;9.20;;;1.80;99.90;;;;;;5093531;28;20024;-73
2021/12/09 01:40:52;;;;;;;24.85;10.57;;;1.80;99.90;;;;;;5092289;28;20050;-73
2021/12/09 01:43:18;;;;;;;18.95;9.38;;;1.80;99.90;;;;;;5092281;28;20425;-72
2021/12/09 01:45:44;;;;;;;18.27;9.48;;;1.80;99.90;;;;;;5092244;28;20024;-73
2021/12/09 01:48:10;;;;;;;23.08;10.07;;;1.80;99.90;;;;;;5092445;28;20032;-73
2021/12/09 01:50:35;;;;;;;22.65;9.32;;;1.70;99.90;;;;;;5093488;28;20107;-73
2021/12/09 01:53:04;;;;;;;18.60;10.27;;;1.60;99.90;;;;;;5093801;28;20031;-73
2021/12/09 01:55:30;;;;;;;27.30;10.60;;;1.50;99.90;;;;;;5095932;28;20024;-73
2021/12/09 01:57:56;;;;;;;26.60;11.10;;;1.40;99.90;;;;;;5097408;28;20024;-73
2021/12/09 02:00:26;;;;;;;24.35;10.85;;;1.40;99.90;;;;;;5097169;28;20036;-73
2021/12/09 02:02:52;;;;;;;29.52;11.40;;;1.40;99.90;;;;;;5097084;28;20024;-72
2021/12/09 02:05:18;;;;;;;30.88;11.52;;;1.30;99.90;;;;;;5095731;28;20074;-72
2021/12/09 02:07:45;;;;;;;21.02;10.30;;;1.20;99.90;;;;;;5096731;28;20078;-72
2021/12/09 02:10:17;;;;;;;25.85;10.95;;;1.20;99.90;;;;;;5095696;28;20035;-72
2021/12/09 02:12:43;;;;;;;25.42;12.18;;;1.10;99.90;;;;;;5095890;28;20024;-72
2021/12/09 02:15:09;;;;;;;30.13;12.65;;;1.10;99.90;;;;;;5095650;28;20478;-72
2021/12/09 02:17:36;;;;;;;25.35;11.57;;;1.00;99.90;;;;;;5095387;28;20430;-72
2021/12/09 02:20:05;;;;;;;26.95;12.23;;;1.00;99.90;;;;;;5096773;28;20039;-72
2021/12/09 02:22:31;;;;;;;27.45;11.93;;;1.00;99.90;;;;;;5095428;28;20020;-72
2021/12/09 02:24:58;;;;;;;30.98;12.73;;;1.00;99.90;;;;;;5095415;28;20024;-72
2021/12/09 02:27:25;;;;;;;26.90;10.77;;;0.90;99.90;;;;;;5095360;28;20020;-72
2021/12/09 02:29:53;;;;;;;31.48;12.88;;;0.90;99.90;;;;;;5095082;28;20483;-72
2021/12/09 02:32:18;;;;;;;30.70;12.37;;;0.90;99.90;;;;;;5096462;28;20047;-72
2021/12/09 02:34:44;;;;;;;27.45;12.48;;;0.90;99.90;;;;;;5096507;28;20714;-72
2021/12/09 02:37:11;;;;;;;32.65;12.52;;;0.90;99.90;;;;;;5095730;28;20400;-72
2021/12/09 02:39:37;;;;;;;31.58;12.10;;;0.90;99.90;;;;;;5096270;28;20020;-72
2021/12/09 02:42:03;;;;;;;30.23;13.13;;;0.90;99.90;;;;;;5096349;28;20111;-72
2021/12/09 02:44:29;;;;;;;28.13;11.95;;;0.90;99.90;;;;;;5095997;28;20020;-73
2021/12/09 02:46:56;;;;;;;32.03;14.02;;;0.90;99.90;;;;;;5096198;28;20111;-72
2021/12/09 02:49:26;;;;;;;27.77;12.38;;;0.90;99.90;;;;;;5094907;28;20027;-71
2021/12/09 02:51:53;;;;;;;29.40;12.43;;;0.90;99.90;;;;;;5095104;28;20490;-71
2021/12/09 02:54:21;;;;;;;26.95;12.70;;;0.80;99.90;;;;;;5096081;28;20022;-72
2021/12/09 02:56:49;;;;;;;40.03;14.15;;;0.80;99.90;;;;;;5096303;28;20024;-72
2021/12/09 02:59:15;;;;;;;33.50;12.80;;;0.80;99.90;;;;;;5094352;28;20024;-72
2021/12/09 03:01:55;;;;;;;35.95;15.02;;;0.80;99.90;;;;;;5094966;28;20396;-72
2021/12/09 03:04:39;;;;;;;36.42;14.23;;;0.80;99.90;;;;;;5095978;28;20031;-72
2021/12/09 03:07:28;;;;;;;42.33;13.57;;;0.80;99.90;;;;;;5095400;28;20059;-72
2021/12/09 03:10:00;;;;;;;43.88;15.63;;;0.80;99.90;;;;;;5095084;28;20059;-72
2021/12/09 03:12:32;;;;;;;35.67;15.55;;;0.80;99.90;;;;;;5097111;28;20376;-72
2021/12/09 03:14:58;;;;;;;32.35;15.00;;;0.80;99.90;;;;;;5096061;28;20024;-72
2021/12/09 03:17:24;;;;;;;32.90;14.38;;;0.80;99.90;;;;;;5095960;28;20472;-72
2021/12/09 03:19:51;;;;;;;38.17;15.27;;;0.80;99.90;;;;;;5095630;28;20031;-72
2021/12/09 03:22:17;;;;;;;37.38;14.27;;;0.80;99.90;;;;;;5095505;28;20028;-72
2021/12/09 03:24:44;;;;;;;35.78;14.07;;;0.70;99.90;;;;;;5095447;28;20070;-72
2021/12/09 03:27:10;;;;;;;35.22;14.00;;;0.80;99.90;;;;;;5094219;28;20024;-72
2021/12/09 03:29:35;;;;;;;33.90;14.07;;;0.70;99.90;;;;;;5095395;28;20028;-72
2021/12/09 03:32:05;;;;;;;37.45;15.50;;;0.70;99.90;;;;;;5095889;28;20056;-72
2021/12/09 03:34:32;;;;;;;36.60;13.93;;;0.70;99.90;;;;;;5094033;28;20020;-71
2021/12/09 03:37:02;;;;;;;36.40;15.27;;;0.70;99.90;;;;;;5094951;28;20510;-72
2021/12/09 03:39:31;;;;;;;35.03;13.73;;;0.90;99.90;;;;;;5094999;28;20028;-71
2021/12/09 03:41:57;;;;;;;36.13;15.07;;;0.60;99.90;;;;;;5095167;28;20478;-71
2021/12/09 03:44:23;;;;;;;29.80;12.25;;;0.80;99.90;;;;;;5095561;28;20039;-71
2021/12/09 03:46:51;;;;;;;40.15;15.02;;;0.70;99.90;;;;;;5095347;28;20099;-71
2021/12/09 03:49:17;;;;;;;27.83;12.77;;;0.70;99.90;;;;;;5094817;28;20046;-71
2021/12/09 03:51:43;;;;;;;30.35;14.43;;;0.70;99.90;;;;;;5093730;28;20352;-71
2021/12/09 03:54:11;;;;;;;32.33;13.98;;;0.70;99.90;;;;;;5093857;28;20464;-71
2021/12/09 03:56:38;;;;;;;30.95;13.20;;;0.70;99.90;;;;;;5094884;28;20049;-71
2021/12/09 03:59:05;;;;;;;34.38;15.38;;;0.70;99.90;;;;;;5095054;28;20043;-70
2021/12/09 04:01:33;;;;;;;35.00;13.20;;;0.80;99.90;;;;;;5094568;28;20028;-71
2021/12/09 04:03:58;;;;;;;33.75;13.82;;;0.70;99.90;;;;;;5095024;28;20108;-71
2021/12/09 04:06:24;;;;;;;30.90;13.05;;;0.60;99.90;;;;;;5093621;28;20150;-71
2021/12/09 04:08:50;;;;;;;32.58;13.85;;;0.60;99.90;;;;;;5094514;28;20039;-71
2021/12/09 04:11:19;;;;;;;32.17;13.30;;;0.60;99.90;;;;;;5094634;28;20039;-70
2021/12/09 04:13:44;;;;;;;;;;;1.20;99.90;;;;;;5094241;28;20371;-70
2021/12/09 04:16:10;;;;;;;31.20;12.70;;;0.60;99.90;;;;;;5093527;28;19999;-70
2021/12/09 04:18:39;;;;;;;37.72;14.88;;;0.60;99.90;;;;;;5093126;28;20087;-71
2021/12/09 04:21:05;;;;;;;32.45;12.70;;;0.70;99.90;;;;;;5093201;28;20038;-70
2021/12/09 04:23:32;;;;;;;28.45;12.70;;;0.70;99.90;;;;;;5093098;28;20541;-70
2021/12/09 04:25:59;;;;;;;37.45;12.60;;;0.70;99.90;;;;;;5094444;28;20031;-71
2021/12/09 04:28:25;;;;;;;30.70;12.85;;;0.60;99.90;;;;;;5093138;28;20028;-71
2021/12/09 04:30:51;;;;;;;32.28;13.60;;;0.70;99.90;;;;;;5093886;28;20123;-71
2021/12/09 04:33:17;;;;;;;28.50;12.60;;;0.70;99.90;;;;;;5094253;28;20036;-71
2021/12/09 04:35:43;;;;;;;27.98;12.40;;;0.70;99.90;;;;;;5094241;28;20102;-71
2021/12/09 04:38:09;;;;;;;32.10;12.50;;;0.60;99.90;;;;;;5093218;28;20122;-71
2021/12/09 04:40:35;;;;;;;31.85;14.07;;;0.70;99.90;;;;;;5092786;28;20066;-71
2021/12/09 04:43:01;;;;;;;36.20;14.10;;;0.70;99.90;;;;;;5094138;28;20032;-71
2021/12/09 04:45:28;;;;;;;29.67;13.38;;;0.70;99.90;;;;;;5094330;28;20058;-71
2021/12/09 04:47:54;;;;;;;37.85;15.23;;;0.70;99.90;;;;;;5093016;28;20120;-71
2021/12/09 04:50:19;;;;;;;37.03;14.95;;;0.70;99.90;;;;;;5094029;28;20357;-71
2021/12/09 04:52:45;;;;;;;36.58;14.38;;;0.70;99.90;;;;;;5094266;28;20035;-72
2021/12/09 04:55:11;;;;;;;35.20;13.50;;;0.60;99.90;;;;;;5092706;28;20024;-72
2021/12/09 04:57:42;;;;;;;37.88;14.60;;;0.60;99.90;;;;;;5092578;28;20028;-72
2021/12/09 05:00:11;;;;;;;37.47;15.70;;;0.70;99.90;;;;;;5092894;28;20426;-71
2021/12/09 05:05:10;;;;;;;33.53;13.52;;;0.70;99.90;;;;;;5093871;28;20070;-72
2021/12/09 05:07:35;;;;;;;36.88;13.10;;;0.70;99.90;;;;;;5093872;28;20059;-72
2021/12/09 05:10:01;;;;;;;32.42;13.93;;;0.70;99.90;;;;;;5093780;28;20020;-72
2021/12/09 05:12:27;;;;;;;35.60;14.23;;;0.70;99.90;;;;;;5093657;28;20449;-74
2021/12/09 05:14:53;;;;;;;33.75;15.20;;;0.70;99.90;;;;;;5092469;28;20052;-69
2021/12/09 05:17:19;;;;;;;35.10;15.60;;;0.60;99.90;;;;;;5093623;28;20059;-69
2021/12/09 05:19:45;;;;;;;37.58;15.07;;;0.70;99.90;;;;;;5093631;28;20033;-69
2021/12/09 05:22:12;;;;;;;36.80;14.55;;;0.70;99.90;;;;;;5093613;28;20057;-66
2021/12/09 05:24:38;;;;;;;37.03;16.02;;;0.70;99.90;;;;;;5093534;28;20112;-70
2021/12/09 05:27:05;;;;;;;41.90;16.02;;;0.70;99.90;;;;;;5092390;28;20047;-69
2021/12/09 05:29:42;;;;;;;36.47;13.77;;;0.70;99.90;;;;;;5094600;28;20380;-70
2021/12/09 05:32:13;;;;;;;44.42;16.48;;;0.70;99.90;;;;;;5096262;28;20044;-70
2021/12/09 05:34:44;;;;;;;44.45;15.98;;;0.70;99.90;;;;;;5097596;28;20415;-70
2021/12/09 05:37:16;;;;;;;38.10;16.73;;;0.70;99.90;;;;;;5096266;28;20020;-70
2021/12/09 05:39:43;;;;;;;37.45;15.57;;;0.70;99.90;;;;;;5097593;28;20032;-69
2021/12/09 05:42:11;;;;;;;35.40;15.32;;;0.70;99.90;;;;;;5097519;28;20035;-69
2021/12/09 05:44:37;;;;;;;42.60;16.13;;;0.70;99.90;;;;;;5097377;28;20024;-69
2021/12/09 05:47:05;;;;;;;39.72;14.50;;;0.70;99.90;;;;;;5097197;28;20446;-69
2021/12/09 05:49:33;;;;;;;43.88;17.35;;;0.70;99.90;;;;;;5096070;28;20031;-69
2021/12/09 05:51:59;;;;;;;38.97;15.65;;;0.70;99.90;;;;;;5097263;28;20043;-69
2021/12/09 05:54:25;;;;;;;35.22;15.05;;;0.70;99.90;;;;;;5097455;28;20415;-69
2021/12/09 05:56:51;;;;;;;43.25;16.02;;;0.70;99.90;;;;;;5097178;28;20028;-69
2021/12/09 05:59:17;;;;;;;39.42;14.65;;;0.70;99.90;;;;;;5097092;28;20028;-69
2021/12/09 06:01:43;;;;;;;39.03;15.57;;;0.70;99.90;;;;;;5097144;28;20114;-69
2021/12/09 06:04:09;;;;;;;34.83;14.27;;;0.70;99.90;;;;;;5097005;28;20075;-69
2021/12/09 06:06:36;;;;;;;37.28;14.60;;;0.70;99.90;;;;;;5095628;28;20126;-69
2021/12/09 06:09:04;;;;;;;35.50;14.00;;;0.70;99.90;;;;;;5096781;28;20039;-69
2021/12/09 06:11:30;;;;;;;37.67;14.93;;;0.70;99.90;;;;;;5096660;28;20020;-69
2021/12/09 06:13:55;;;;;;;46.13;15.52;;;0.70;99.90;;;;;;5096819;28;20084;-71
2021/12/09 06:16:22;;;;;;;38.15;14.70;;;0.70;99.90;;;;;;5096826;28;20020;-69
2021/12/09 06:18:48;;;;;;;35.22;14.88;;;0.70;99.90;;;;;;5096646;28;20085;-69
2021/12/09 06:21:13;;;;;;;42.72;16.92;;;0.70;99.90;;;;;;5096983;28;20032;-69
2021/12/09 06:23:39;;;;;;;38.33;14.55;;;0.70;99.90;;;;;;5096581;28;20104;-70
2021/12/09 06:26:06;;;;;;;40.95;15.15;;;0.70;99.90;;;;;;5095308;28;20070;-69
2021/12/09 06:28:32;;;;;;;34.88;14.38;;;0.70;99.90;;;;;;5095521;28;20028;-69
2021/12/09 06:30:58;;;;;;;34.13;14.45;;;0.70;99.90;;;;;;5096515;28;20102;-69
2021/12/09 06:33:24;;;;;;;40.22;14.85;;;0.70;99.90;;;;;;5096101;28;20031;-69
2021/12/09 06:35:49;;;;;;;40.05;15.68;;;0.70;99.90;;;;;;5095041;28;20119;-69
2021/12/09 06:38:16;;;;;;;38.45;15.50;;;0.80;99.90;;;;;;5094897;28;20476;-69
2021/12/09 06:40:43;;;;;;;35.35;14.88;;;0.80;99.90;;;;;;5095133;28;20119;-70
2021/12/09 06:43:09;;;;;;;39.83;14.38;;;0.80;99.90;;;;;;5096224;28;20024;-70
2021/12/09 06:45:35;;;;;;;37.83;15.02;;;0.80;99.90;;;;;;5094576;28;20031;-70
2021/12/09 06:48:01;;;;;;;33.92;13.77;;;0.80;99.90;;;;;;5094253;28;20379;-69
2021/12/09 06:50:27;;;;;;;39.13;14.38;;;0.80;99.90;;;;;;5095384;28;20027;-70
2021/12/09 06:52:53;;;;;;;40.75;14.32;;;0.80;99.90;;;;;;5095506;28;20031;-70
2021/12/09 06:55:20;;;;;;;37.20;14.93;;;0.80;99.90;;;;;;5095887;28;20032;-70
2021/12/09 06:57:47;;;;;;;37.58;14.13;;;0.80;99.90;;;;;;5094467;28;20432;-70
2021/12/09 07:00:17;;;;;;;33.03;13.75;;;0.80;99.90;;;;;;5095664;28;20142;-70
2021/12/09 07:02:44;;;;;;;31.98;13.10;;;0.80;99.90;;;;;;5095848;28;20020;-70
2021/12/09 07:05:11;;;;;;;36.55;13.23;;;0.80;99.90;;;;;;5095696;28;20332;-70
2021/12/09 07:07:38;;;;;;;33.92;14.73;;;0.80;99.90;;;;;;5095414;28;20165;-70
2021/12/09 07:10:05;;;;;;;34.22;15.18;;;0.80;99.90;;;;;;5095667;28;20035;-70
2021/12/09 07:12:50;;;;;;;28.98;13.07;;;0.70;99.90;;;;;;5095310;28;20032;-70
2021/12/09 07:15:16;;;;;;;36.58;13.48;;;0.80;99.90;;;;;;5095202;28;20115;-70
2021/12/09 07:17:42;;;;;;;34.35;13.30;;;0.80;99.90;;;;;;5095438;28;20032;-71
2021/12/09 07:20:12;;;;;;;33.90;13.18;;;0.80;99.90;;;;;;5095328;28;20028;-71
2021/12/09 07:22:38;;;;;;;34.28;13.35;;;0.80;99.90;;;;;;5095325;28;20488;-71
2021/12/09 07:25:05;;;;;;;30.48;13.52;;;0.80;99.90;;;;;;5095408;28;20115;-71
2021/12/09 07:27:31;;;;;;;31.00;13.40;;;0.90;99.90;;;;;;5095350;28;20095;-71
2021/12/09 07:29:57;;;;;;;36.63;14.10;;;0.90;99.90;;;;;;5095184;28;20028;-72
2021/12/09 07:32:22;;;;;;;27.58;11.93;;;0.90;99.90;;;;;;5095465;28;20031;-71
2021/12/09 07:34:48;;;;;;;31.75;12.82;;;0.90;99.90;;;;;;5095277;28;20020;-71
2021/12/09 07:37:14;;;;;;;35.33;12.98;;;0.90;99.90;;;;;;5095497;28;20111;-72
2021/12/09 07:39:39;;;;;;;33.90;12.27;;;0.90;99.90;;;;;;5095307;28;20482;-71
2021/12/09 07:42:24;;;;;;;29.75;13.57;;;0.90;99.90;;;;;;5093802;28;20070;-72
2021/12/09 07:44:51;;;;;;;35.13;11.98;;;0.90;99.90;;;;;;5093890;28;20069;-71
2021/12/09 07:47:17;;;;;;;33.55;14.15;;;1.00;99.90;;;;;;5094926;28;20399;-72
2021/12/09 07:49:44;;;;;;;31.35;12.70;;;0.90;99.90;;;;;;5093811;28;20380;-72
2021/12/09 07:52:10;;;;;;;28.15;13.35;;;1.00;99.90;;;;;;5094687;28;20074;-71
2021/12/09 07:54:36;;;;;;;35.97;13.68;;;1.00;99.90;;;;;;5094855;28;20028;-71
2021/12/09 07:57:02;;;;;;;32.35;14.55;;;1.10;99.90;;;;;;5094931;28;20032;-72
2021/12/09 07:59:28;;;;;;;35.33;14.07;;;1.10;99.90;;;;;;5093446;28;20032;-72
2021/12/09 08:01:54;;;;;;;33.70;13.65;;;1.10;99.90;;;;;;5094774;28;20034;-72
2021/12/09 08:04:19;;;;;;;35.05;12.90;;;1.10;99.90;;;;;;5094422;28;20031;-71
2021/12/09 08:06:46;;;;;;;33.35;13.82;;;1.10;99.90;;;;;;5094600;28;20063;-71
2021/12/09 08:09:11;;;;;;;37.90;12.88;;;1.20;99.90;;;;;;5094775;28;20035;-72
2021/12/09 08:11:38;;;;;;;34.65;13.20;;;1.20;99.90;;;;;;5094811;28;20032;-72
2021/12/09 08:14:11;;;;;;;31.77;13.07;;;1.10;99.90;;;;;;5093422;28;20361;-72
2021/12/09 08:16:39;;;;;;;30.23;12.48;;;1.10;99.90;;;;;;5093184;28;20031;-72
2021/12/09 08:19:06;;;;;;;30.55;12.98;;;1.10;99.90;;;;;;5094661;28;20118;-72
2021/12/09 08:21:35;;;;;;;34.00;13.63;;;1.10;99.90;;;;;;5094475;28;20032;-72
2021/12/09 08:24:02;;;;;;;28.85;11.52;;;1.20;99.90;;;;;;5093056;28;20162;-73
2021/12/09 08:26:27;;;;;;;30.42;13.40;;;1.10;99.90;;;;;;5094371;28;20028;-72
2021/12/09 08:28:54;;;;;;;31.33;13.60;;;1.20;99.90;;;;;;5094512;28;20024;-72
2021/12/09 08:31:20;;;;;;;31.67;12.82;;;1.20;99.90;;;;;;5092859;28;20562;-73
2021/12/09 08:33:47;;;;;;;33.83;12.85;;;1.20;99.90;;;;;;5093382;28;20073;-72
2021/12/09 08:36:12;;;;;;;28.30;12.88;;;1.20;99.90;;;;;;5094295;28;20467;-71
2021/12/09 08:38:38;;;;;;;31.45;14.43;;;1.30;99.90;;;;;;5092837;28;20081;-71
2021/12/09 08:41:04;;;;;;;33.47;14.93;;;1.30;99.90;;;;;;5092905;28;20028;-71
2021/12/09 08:43:30;;;;;;;32.97;13.70;;;1.30;99.90;;;;;;5092860;28;20085;-72
2021/12/09 08:45:56;;;;;;;33.38;14.43;;;1.30;99.90;;;;;;5094180;28;20028;-71
2021/12/09 08:48:23;;;;;;;27.70;12.30;;;1.30;99.90;;;;;;5092792;28;20114;-72
2021/12/09 08:50:49;;;;;;;31.90;12.23;;;1.30;99.90;;;;;;5094116;28;20024;-72
2021/12/09 08:53:18;;;;;;;32.30;13.57;;;1.30;99.90;;;;;;5092743;28;20021;-71
2021/12/09 08:55:44;;;;;;;28.60;13.05;;;1.30;99.90;;;;;;5094053;28;20461;-71
2021/12/09 08:58:12;;;;;;;35.47;13.15;;;1.30;99.90;;;;;;5093728;28;20040;-71
2021/12/09 09:00:39;;;;;;;29.38;12.77;;;1.30;99.90;;;;;;5093826;28;20039;-72
2021/12/09 09:03:05;;;;;;;32.88;12.65;;;1.30;99.90;;;;;;5093236;28;20036;-72
2021/12/09 09:05:32;;;;;;;28.13;12.63;;;1.30;99.90;;;;;;5094029;28;20084;-72
2021/12/09 09:07:59;;;;;;;37.72;14.38;;;1.30;99.90;;;;;;5092606;28;20089;-72
2021/12/09 09:10:27;;;;;;;33.67;13.05;;;1.30;99.90;;;;;;5092593;28;20375;-72
2021/12/09 09:12:54;;;;;;;29.63;12.38;;;1.30;99.90;;;;;;5092658;28;20024;-72
2021/12/09 09:15:22;;;;;;;33.45;13.05;;;1.40;99.90;;;;;;5093825;28;20032;-72
2021/12/09 09:17:49;;;;;;;30.90;12.82;;;1.40;99.90;;;;;;5093666;28;20020;-72
2021/12/09 09:20:16;;;;;;;41.85;13.48;;;1.40;99.90;;;;;;5093668;28;20557;-72
2021/12/09 09:22:43;;;;;;;27.30;10.90;;;1.40;99.90;;;;;;5092575;28;20446;-73
2021/12/09 09:25:17;;;;;;;25.42;11.48;;;1.40;99.90;;;;;;5092582;28;20029;-74
2021/12/09 09:27:43;;;;;;;29.20;11.57;;;1.40;99.90;;;;;;5093794;28;20024;-73
2021/12/09 09:30:14;;;;;;;28.23;10.35;;;1.40;99.90;;;;;;5093316;28;20420;-73
2021/12/09 09:32:41;;;;;;;27.52;10.32;;;1.40;99.90;;;;;;5093755;28;20105;-73
2021/12/09 09:35:08;;;;;;;27.40;10.30;;;1.50;99.90;;;;;;5093622;28;20026;-73
2021/12/09 09:37:35;;;;;;;20.55;10.43;;;1.50;99.90;;;;;;5092479;28;20024;-73
2021/12/09 09:40:05;;;;;;;28.35;11.63;;;1.40;99.90;;;;;;5093710;28;20529;-73
2021/12/09 09:42:55;;;;;;;20.35;9.90;;;1.40;99.90;;;;;;5093912;28;20416;-74
2021/12/09 09:45:17;;;;;;;22.92;10.38;;;1.40;99.90;;;;;;5093509;28;20456;-74
2021/12/09 09:47:43;;;;;;;21.25;9.98;;;1.40;99.90;;;;;;5092240;28;20168;-73
2021/12/09 09:50:10;;;;;;;25.05;11.57;;;1.40;99.90;;;;;;5093557;28;20031;-74
2021/12/09 09:52:37;;;;;;;24.33;9.55;;;1.40;99.90;;;;;;5093144;28;20540;-74
2021/12/09 09:55:07;;;;;;;23.42;9.82;;;1.40;99.90;;;;;;5093119;28;20383;-74
2021/12/09 09:57:33;;;;;;;19.40;9.35;;;1.40;99.90;;;;;;5093505;28;20036;-73
2021/12/09 09:59:58;;;;;;;21.35;9.27;;;1.40;99.90;;;;;;5093025;28;20044;-73
2021/12/09 10:02:24;;;;;;;23.00;9.57;;;1.40;99.90;;;;;;5092343;28;20024;-73
2021/12/09 10:05:00;;;;;;;17.85;8.25;;;1.40;99.90;;;;;;5092296;28;20020;-72
2021/12/09 10:07:26;;;;;;;22.48;9.45;;;1.40;99.90;;;;;;5092128;28;20024;-72
2021/12/09 10:09:53;;;;;;;20.10;7.82;;;1.40;99.90;;;;;;5093145;28;20028;-72
2021/12/09 10:12:19;;;;;;;19.42;8.02;;;1.40;99.90;;;;;;5092668;28;20070;-72
2021/12/09 10:14:48;;;;;;;17.80;8.60;;;1.40;99.90;;;;;;5094717;28;20028;-71
2021/12/09 10:17:20;;;;;;;22.67;8.75;;;1.40;99.90;;;;;;5096980;28;20024;-72
2021/12/09 10:19:46;;;;;;;19.00;8.57;;;1.40;99.90;;;;;;5096741;28;20074;-72
2021/12/09 10:22:19;;;;;;;18.63;9.02;;;1.40;99.90;;;;;;5095617;28;20028;-72
2021/12/09 10:24:47;;;;;;;16.58;8.30;;;1.40;99.90;;;;;;5095807;28;20028;-71
2021/12/09 10:27:28;;;;;;;19.67;7.75;;;1.50;99.90;;;;;;5095497;28;20089;-72
2021/12/09 10:30:15;;;;;;;16.33;8.30;;;1.50;99.90;;;;;;5096735;28;20058;-71
2021/12/09 10:32:42;;;;;;;30.10;8.80;;;1.50;99.90;;;;;;5095973;28;20105;-72
2021/12/09 10:35:18;;;;;;;17.75;7.97;;;1.50;99.90;;;;;;5095257;28;20036;-71
2021/12/09 10:37:46;;;;;;;21.55;9.05;;;1.60;99.90;;;;;;5094881;28;20066;-72
2021/12/09 10:40:16;;;;;;;24.42;11.32;;;1.60;99.90;;;;;;5095773;28;20490;-71
2021/12/09 10:43:03;;;;;;;20.67;11.77;;;1.60;99.90;;;;;;5096362;28;20051;-71
2021/12/09 10:45:36;;;;;;;23.33;10.48;;;1.60;99.90;;;;;;5095203;28;20028;-72
2021/12/09 10:48:17;;;;;;;17.52;7.97;;;1.60;99.90;;;;;;5095431;28;20081;-71
2021/12/09 10:51:06;;;;;;;17.70;7.78;;;1.60;99.90;;;;;;5096241;28;20020;-71
2021/12/09 10:56:09;;;;;;;23.35;10.90;;;1.60;99.90;;;;;;5096083;28;20032;-71
2021/12/09 10:58:37;;;;;;;18.20;7.80;;;1.60;99.90;;;;;;5095281;28;20092;-71
2021/12/09 11:01:12;;;;;;;20.80;10.07;;;1.60;99.90;;;;;;5095933;28;20036;-71
2021/12/09 11:03:44;;;;;;;21.88;9.40;;;1.60;99.90;;;;;;5094431;28;20024;-71
2021/12/09 11:06:11;;;;;;;18.80;8.48;;;1.60;99.90;;;;;;5094827;28;20055;-71
2021/12/09 11:08:53;;;;;;;19.50;7.80;;;1.60;99.90;;;;;;5096321;28;20028;-71
2021/12/09 11:11:30;;;;;;;20.33;8.82;;;1.60;99.90;;;;;;5096543;28;20043;-71
2021/12/09 11:14:09;;;;;;;20.38;8.98;;;1.60;99.90;;;;;;5096732;28;20024;-71
2021/12/09 11:16:43;;;;;;;18.05;8.82;;;1.60;99.90;;;;;;5096295;28;20052;-73
2021/12/09 11:19:13;;;;;;;21.08;8.05;;;1.60;99.90;;;;;;5094535;28;20063;-72
2021/12/09 11:21:44;;;;;;;18.58;8.95;;;1.60;99.90;;;;;;5094424;28;20076;-71
2021/12/09 11:24:17;;;;;;;21.27;9.43;;;1.60;99.90;;;;;;5094934;28;20119;-71
2021/12/09 11:29:26;;;;;;;13.00;7.53;;;1.60;99.90;;;;;;5094513;28;20032;-71
2021/12/09 11:32:02;;;;;;;14.77;7.57;;;1.60;99.90;;;;;;5096015;28;20044;-70
2021/12/09 11:34:43;;;;;;;25.52;7.80;;;1.60;99.90;;;;;;5094089;28;20028;-71
2021/12/09 11:37:34;;;;;;;16.08;7.85;;;1.60;99.90;;;;;;5094072;28;20050;-67
2021/12/09 11:40:06;;;;;;;17.63;7.70;;;1.50;99.90;;;;;;5095951;28;20097;-69
2021/12/09 11:42:44;;;;;;;18.25;8.15;;;1.60;99.90;;;;;;5095500;28;20020;-67
2021/12/09 11:45:12;;;;;;;15.68;7.70;;;1.60;99.90;;;;;;5093929;28;20118;-69
2021/12/09 11:47:43;;;;;;;16.87;7.50;;;1.60;99.90;;;;;;5094052;28;20556;-70
2021/12/09 11:50:16;;;;;;;21.75;8.63;;;1.60;99.90;;;;;;5094972;28;20032;-67
2021/12/09 11:52:43;;;;;;;19.15;8.77;;;1.60;99.90;;;;;;5094758;28;20384;-66
2021/12/09 11:55:17;;;;;;;17.58;7.68;;;1.60;99.90;;;;;;5094964;28;20020;-67
2021/12/09 11:58:00;;;;;;;14.23;6.85;;;1.60;99.90;;;;;;5093653;28;20028;-66
2021/12/09 12:16:02;;;;;;;17.98;7.70;;;1.50;99.90;;;;;;5094616;28;20395;-66
2021/12/09 12:38:10;;;;;;;13.00;7.07;;;1.50;99.90;;;;;;5093599;28;20154;-72
2021/12/09 12:40:52;;;;;;;14.30;6.25;;;1.50;99.90;;;;;;5094236;28;20127;-73
2021/12/09 12:43:34;;;;;;;17.15;7.30;;;1.50;99.90;;;;;;5093679;28;20031;-72
2021/12/09 12:46:12;;;;;;;13.90;6.50;;;1.50;99.90;;;;;;5092922;28;20460;-72
2021/12/09 12:51:31;;;;;;;18.77;8.57;;;1.40;99.90;;;;;;5094787;28;20487;-72
2021/12/09 12:54:04;;;;;;;16.40;7.43;;;1.40;99.90;;;;;;5093269;28;20031;-71
2021/12/09 12:56:41;;;;;;;15.52;8.02;;;1.40;99.90;;;;;;5094305;28;20027;-71
2021/12/09 12:59:09;;;;;;;28.80;7.97;;;1.40;99.90;;;;;;5093601;28;20525;-73
2021/12/09 13:01:41;;;;;;;20.85;7.45;;;1.40;99.90;;;;;;5094290;28;20072;-73
2021/12/09 13:04:28;;;;;;;21.13;8.25;;;1.40;99.90;;;;;;5092823;28;20059;-73
2021/12/09 13:07:00;;;;;;;18.25;8.85;;;1.40;99.90;;;;;;5093728;28;20410;-72
2021/12/09 13:09:35;;;;;;;18.20;8.77;;;1.50;99.90;;;;;;5093246;28;20024;-72
2021/12/09 13:12:06;;;;;;;19.02;9.05;;;1.40;99.90;;;;;;5094232;28;20024;-72
2021/12/09 13:14:35;;;;;;;24.83;10.68;;;1.40;99.90;;;;;;5092887;28;20070;-73
2021/12/09 13:17:25;;;;;;;19.27;8.23;;;1.40;99.90;;;;;;5092616;28;20024;-72
2021/12/09 13:20:04;;;;;;;18.10;8.77;;;1.40;99.90;;;;;;5092923;28;20032;-72
2021/12/09 13:22:36;;;;;;;15.07;8.00;;;1.40;99.90;;;;;;5093913;28;20023;-73
2021/12/09 13:25:25;;;;;;;20.27;8.70;;;1.40;99.90;;;;;;5093793;28;20024;-75
2021/12/09 13:27:58;;;;;;;;;;;1.40;99.90;;;;;;5094299;28;20024;-74
2021/12/09 13:39:27;;;;;;;17.52;8.23;;;1.30;99.90;;;;;;5051011;28;20075;-74
2021/12/09 13:47:38;;;;;;;14.40;7.55;;;1.20;99.90;;;;;;5051158;28;20259;-74